SWR187 EDDM-LSZH
Flight info
| Callsign | SWR187 |
|---|---|
| Flight time | 0h 33m |
| Altitude | 20000 |
| Route | MERSI5S MERSI Y100 MOMUK Y112 RAVED L856 NEGRA |
| Aircraft | A320/M-SDE3FGHIRWY/LB1 |
Departure
| Time | 2026-05-06 16:28 |
|---|---|
| Airport | Munich Airport (EDDM) |
Arrival
| Time | 2026-05-06 17:01 |
|---|---|
| Airport | Zürich Airport (LSZH) |
| Time | Latitude | Longitude | Altitude | Speed | Heading |
|---|---|---|---|---|---|
| 2026-05-06 16:04 | 48.35289 | 11.80286 | 1486 ft | 0 kts | 83° |
| 2026-05-06 16:16 | 48.35288 | 11.80281 | 1485 ft | 3 kts | 83° |
| 2026-05-06 16:17 | 48.35286 | 11.80245 | 1471 ft | 3 kts | 83° |
| 2026-05-06 16:17 | 48.35284 | 11.80215 | 1471 ft | 3 kts | 99° |
| 2026-05-06 16:17 | 48.35292 | 11.80183 | 1475 ft | 3 kts | 137° |
| 2026-05-06 16:17 | 48.35312 | 11.80168 | 1483 ft | 3 kts | 173° |
| 2026-05-06 16:18 | 48.35329 | 11.80165 | 1484 ft | 0 kts | 173° |
| 2026-05-06 16:20 | 48.35326 | 11.80166 | 1483 ft | 3 kts | 173° |
| 2026-05-06 16:20 | 48.35295 | 11.80171 | 1475 ft | 4 kts | 173° |
| 2026-05-06 16:20 | 48.35233 | 11.80182 | 1475 ft | 14 kts | 173° |
| 2026-05-06 16:21 | 48.35144 | 11.80196 | 1483 ft | 12 kts | 178° |
| 2026-05-06 16:21 | 48.35104 | 11.80120 | 1482 ft | 9 kts | 255° |
| 2026-05-06 16:21 | 48.35098 | 11.80030 | 1473 ft | 8 kts | 262° |
| 2026-05-06 16:21 | 48.35090 | 11.79944 | 1485 ft | 8 kts | 262° |
| 2026-05-06 16:22 | 48.35083 | 11.79859 | 1473 ft | 8 kts | 263° |
| 2026-05-06 16:22 | 48.35076 | 11.79762 | 1485 ft | 13 kts | 263° |
| 2026-05-06 16:22 | 48.35031 | 11.79665 | 1483 ft | 9 kts | 191° |
| 2026-05-06 16:22 | 48.35006 | 11.79667 | 1485 ft | 0 kts | 174° |
| 2026-05-06 16:23 | 48.35005 | 11.79668 | 1485 ft | 0 kts | 174° |
| 2026-05-06 16:23 | 48.34989 | 11.79670 | 1468 ft | 10 kts | 173° |
| 2026-05-06 16:23 | 48.34915 | 11.79683 | 1475 ft | 10 kts | 174° |
| 2026-05-06 16:23 | 48.34847 | 11.79695 | 1482 ft | 10 kts | 173° |
| 2026-05-06 16:24 | 48.34808 | 11.79779 | 1483 ft | 15 kts | 86° |
| 2026-05-06 16:24 | 48.34819 | 11.79917 | 1485 ft | 12 kts | 83° |
| 2026-05-06 16:24 | 48.34828 | 11.80036 | 1479 ft | 11 kts | 83° |
| 2026-05-06 16:24 | 48.34822 | 11.80133 | 1476 ft | 9 kts | 116° |
| 2026-05-06 16:25 | 48.34787 | 11.80206 | 1479 ft | 9 kts | 130° |
| 2026-05-06 16:25 | 48.34713 | 11.80246 | 1483 ft | 13 kts | 174° |
| 2026-05-06 16:25 | 48.34635 | 11.80259 | 1472 ft | 11 kts | 173° |
| 2026-05-06 16:25 | 48.34567 | 11.80271 | 1481 ft | 9 kts | 173° |
| 2026-05-06 16:26 | 48.34508 | 11.80281 | 1479 ft | 8 kts | 173° |
| 2026-05-06 16:26 | 48.34464 | 11.80239 | 1485 ft | 8 kts | 254° |
| 2026-05-06 16:26 | 48.34461 | 11.80210 | 1480 ft | 0 kts | 263° |
| 2026-05-06 16:27 | 48.34447 | 11.80017 | 1480 ft | 53 kts | 264° |
| 2026-05-06 16:27 | 48.34377 | 11.79119 | 1482 ft | 117 kts | 263° |
| 2026-05-06 16:27 | 48.34262 | 11.77633 | 1474 ft | 167 kts | 263° |
| 2026-05-06 16:27 | 48.34115 | 11.75764 | 1808 ft | 185 kts | 264° |
| 2026-05-06 16:28 | 48.33978 | 11.73814 | 2519 ft | 190 kts | 266° |
| 2026-05-06 16:28 | 48.33842 | 11.71850 | 3322 ft | 189 kts | 265° |
| 2026-05-06 16:28 | 48.33689 | 11.69801 | 3691 ft | 208 kts | 264° |
| 2026-05-06 16:28 | 48.33514 | 11.67555 | 4080 ft | 224 kts | 263° |
| 2026-05-06 16:29 | 48.33325 | 11.65175 | 4736 ft | 232 kts | 263° |
| 2026-05-06 16:29 | 48.33138 | 11.62735 | 5373 ft | 244 kts | 263° |
| 2026-05-06 16:29 | 48.32951 | 11.60147 | 6131 ft | 248 kts | 262° |
| 2026-05-06 16:29 | 48.32756 | 11.57473 | 6697 ft | 266 kts | 262° |
| 2026-05-06 16:30 | 48.32537 | 11.54718 | 7446 ft | 272 kts | 257° |
| 2026-05-06 16:30 | 48.32150 | 11.52886 | 8014 ft | 273 kts | 244° |
| 2026-05-06 16:30 | 48.31108 | 11.49433 | 9220 ft | 275 kts | 244° |
| 2026-05-06 16:30 | 48.30301 | 11.46809 | 10037 ft | 281 kts | 243° |
| 2026-05-06 16:31 | 48.29439 | 11.44039 | 10338 ft | 304 kts | 243° |
| 2026-05-06 16:31 | 48.28525 | 11.41093 | 10942 ft | 316 kts | 243° |
| 2026-05-06 16:31 | 48.27595 | 11.38086 | 11708 ft | 320 kts | 244° |
| 2026-05-06 16:31 | 48.26672 | 11.35098 | 12273 ft | 307 kts | 243° |
| 2026-05-06 16:32 | 48.25767 | 11.32168 | 12564 ft | 317 kts | 244° |
| 2026-05-06 16:32 | 48.24825 | 11.29124 | 13193 ft | 325 kts | 244° |
| 2026-05-06 16:32 | 48.23865 | 11.26030 | 13894 ft | 329 kts | 244° |
| 2026-05-06 16:32 | 48.22896 | 11.22907 | 14550 ft | 332 kts | 243° |
| 2026-05-06 16:33 | 48.21918 | 11.19753 | 15202 ft | 335 kts | 243° |
| 2026-05-06 16:33 | 48.20930 | 11.16563 | 15844 ft | 339 kts | 243° |
| 2026-05-06 16:33 | 48.19930 | 11.13342 | 16493 ft | 342 kts | 243° |
| 2026-05-06 16:34 | 48.17891 | 11.06813 | 17776 ft | 350 kts | 243° |
| 2026-05-06 16:34 | 48.16851 | 11.03499 | 18371 ft | 353 kts | 243° |
| 2026-05-06 16:34 | 48.15801 | 11.00150 | 18915 ft | 357 kts | 243° |
| 2026-05-06 16:34 | 48.14743 | 10.96771 | 19465 ft | 360 kts | 243° |
| 2026-05-06 16:35 | 48.13674 | 10.93364 | 19757 ft | 362 kts | 243° |
| 2026-05-06 16:35 | 48.12604 | 10.89954 | 19831 ft | 362 kts | 243° |
| 2026-05-06 16:35 | 48.11529 | 10.86543 | 19837 ft | 362 kts | 243° |
| 2026-05-06 16:35 | 48.10453 | 10.83138 | 19842 ft | 362 kts | 242° |
| 2026-05-06 16:36 | 48.09376 | 10.79731 | 19835 ft | 362 kts | 243° |
| 2026-05-06 16:36 | 48.08300 | 10.76327 | 19834 ft | 362 kts | 243° |
| 2026-05-06 16:36 | 48.07222 | 10.72925 | 19829 ft | 362 kts | 242° |
| 2026-05-06 16:36 | 48.06361 | 10.70216 | 19831 ft | 362 kts | 242° |
| 2026-05-06 16:37 | 48.05290 | 10.66843 | 19824 ft | 361 kts | 243° |
| 2026-05-06 16:37 | 48.04227 | 10.63495 | 19826 ft | 361 kts | 242° |
| 2026-05-06 16:37 | 48.03149 | 10.60102 | 19824 ft | 362 kts | 243° |
| 2026-05-06 16:37 | 48.02070 | 10.56715 | 19845 ft | 361 kts | 242° |
| 2026-05-06 16:38 | 48.00990 | 10.53333 | 19850 ft | 361 kts | 242° |
| 2026-05-06 16:38 | 47.99908 | 10.49951 | 19855 ft | 361 kts | 242° |
| 2026-05-06 16:38 | 47.98824 | 10.46572 | 19859 ft | 361 kts | 242° |
| 2026-05-06 16:38 | 47.97738 | 10.43197 | 19867 ft | 361 kts | 242° |
| 2026-05-06 16:39 | 47.96652 | 10.39814 | 19863 ft | 361 kts | 242° |
| 2026-05-06 16:39 | 47.95568 | 10.36436 | 19863 ft | 361 kts | 243° |
| 2026-05-06 16:39 | 47.94487 | 10.33064 | 19869 ft | 361 kts | 242° |
| 2026-05-06 16:39 | 47.93402 | 10.29685 | 19867 ft | 361 kts | 242° |
| 2026-05-06 16:40 | 47.92314 | 10.26314 | 19862 ft | 361 kts | 242° |
| 2026-05-06 16:40 | 47.91222 | 10.22943 | 19868 ft | 361 kts | 242° |
| 2026-05-06 16:40 | 47.90127 | 10.19571 | 19864 ft | 361 kts | 242° |
| 2026-05-06 16:40 | 47.89033 | 10.16203 | 19862 ft | 361 kts | 242° |
| 2026-05-06 16:41 | 47.87940 | 10.12828 | 19858 ft | 361 kts | 242° |
| 2026-05-06 16:41 | 47.86848 | 10.09459 | 19858 ft | 362 kts | 242° |
| 2026-05-06 16:41 | 47.85768 | 10.06128 | 19858 ft | 362 kts | 242° |
| 2026-05-06 16:41 | 47.84671 | 10.02758 | 19857 ft | 362 kts | 242° |
| 2026-05-06 16:42 | 47.83571 | 9.99392 | 19855 ft | 362 kts | 242° |
| 2026-05-06 16:42 | 47.82468 | 9.96023 | 19851 ft | 362 kts | 242° |
| 2026-05-06 16:42 | 47.81365 | 9.92656 | 19853 ft | 362 kts | 242° |
| 2026-05-06 16:42 | 47.80263 | 9.89292 | 19864 ft | 362 kts | 242° |
| 2026-05-06 16:43 | 47.79159 | 9.85926 | 19868 ft | 362 kts | 242° |
| 2026-05-06 16:43 | 47.78057 | 9.82569 | 19872 ft | 362 kts | 242° |
| 2026-05-06 16:43 | 47.76951 | 9.79204 | 19875 ft | 362 kts | 242° |
| 2026-05-06 16:43 | 47.75845 | 9.75842 | 19878 ft | 362 kts | 242° |
| 2026-05-06 16:44 | 47.74738 | 9.72484 | 19885 ft | 362 kts | 242° |
| 2026-05-06 16:44 | 47.73669 | 9.69091 | 19891 ft | 363 kts | 247° |
| 2026-05-06 16:44 | 47.72987 | 9.65474 | 19895 ft | 366 kts | 258° |
| 2026-05-06 16:44 | 47.72769 | 9.61698 | 19903 ft | 368 kts | 265° |
| 2026-05-06 16:45 | 47.72670 | 9.57900 | 19899 ft | 368 kts | 265° |
| 2026-05-06 16:45 | 47.72565 | 9.54102 | 19903 ft | 368 kts | 265° |
| 2026-05-06 16:45 | 47.72396 | 9.50325 | 19898 ft | 365 kts | 258° |
| 2026-05-06 16:45 | 47.71924 | 9.46620 | 19899 ft | 365 kts | 257° |
| 2026-05-06 16:46 | 47.71460 | 9.42914 | 19894 ft | 365 kts | 257° |
| 2026-05-06 16:46 | 47.71008 | 9.39200 | 19897 ft | 365 kts | 257° |
| 2026-05-06 16:46 | 47.70566 | 9.35538 | 19896 ft | 365 kts | 257° |
| 2026-05-06 16:46 | 47.70116 | 9.31828 | 19895 ft | 365 kts | 257° |
| 2026-05-06 16:47 | 47.69660 | 9.28123 | 19890 ft | 365 kts | 257° |
| 2026-05-06 16:47 | 47.69195 | 9.24412 | 19892 ft | 365 kts | 257° |
| 2026-05-06 16:47 | 47.68725 | 9.20710 | 19887 ft | 365 kts | 257° |
| 2026-05-06 16:47 | 47.68252 | 9.17000 | 19890 ft | 366 kts | 257° |
| 2026-05-06 16:48 | 47.67780 | 9.13294 | 19889 ft | 366 kts | 257° |
| 2026-05-06 16:48 | 47.67309 | 9.09585 | 19890 ft | 365 kts | 257° |
| 2026-05-06 16:48 | 47.66837 | 9.05880 | 19891 ft | 365 kts | 257° |
| 2026-05-06 16:48 | 47.66409 | 9.02541 | 19893 ft | 365 kts | 257° |
| 2026-05-06 16:49 | 47.65935 | 8.98841 | 19892 ft | 366 kts | 257° |
| 2026-05-06 16:49 | 47.65615 | 8.96344 | 19670 ft | 364 kts | 257° |
| 2026-05-06 16:49 | 47.65142 | 8.92665 | 19157 ft | 362 kts | 257° |
| 2026-05-06 16:49 | 47.64674 | 8.89050 | 18495 ft | 353 kts | 257° |
| 2026-05-06 16:50 | 47.64214 | 8.85514 | 17758 ft | 346 kts | 257° |
| 2026-05-06 16:50 | 47.63764 | 8.82092 | 17000 ft | 339 kts | 255° |
| 2026-05-06 16:50 | 47.63033 | 8.78810 | 16253 ft | 332 kts | 246° |
| 2026-05-06 16:50 | 47.62141 | 8.75677 | 15509 ft | 327 kts | 246° |
| 2026-05-06 16:51 | 47.61264 | 8.72588 | 14791 ft | 323 kts | 246° |
| 2026-05-06 16:51 | 47.60403 | 8.69537 | 14085 ft | 319 kts | 246° |
| 2026-05-06 16:51 | 47.59558 | 8.66449 | 13359 ft | 327 kts | 251° |
| 2026-05-06 16:51 | 47.59202 | 8.63092 | 12586 ft | 336 kts | 269° |
| 2026-05-06 16:52 | 47.59641 | 8.59697 | 12049 ft | 333 kts | 289° |
| 2026-05-06 16:52 | 47.60760 | 8.56788 | 11793 ft | 324 kts | 306° |
| 2026-05-06 16:52 | 47.62330 | 8.54437 | 11435 ft | 320 kts | 313° |
| 2026-05-06 16:52 | 47.63958 | 8.52191 | 10967 ft | 320 kts | 313° |
| 2026-05-06 16:53 | 47.65589 | 8.49959 | 10550 ft | 319 kts | 313° |
| 2026-05-06 16:53 | 47.67218 | 8.47731 | 10173 ft | 316 kts | 313° |
| 2026-05-06 16:53 | 47.68792 | 8.45584 | 9997 ft | 298 kts | 313° |
| 2026-05-06 16:53 | 47.70295 | 8.43534 | 9543 ft | 289 kts | 312° |
| 2026-05-06 16:54 | 47.71757 | 8.41525 | 9380 ft | 286 kts | 312° |
| 2026-05-06 16:54 | 47.73169 | 8.39458 | 9204 ft | 282 kts | 302° |
| 2026-05-06 16:54 | 47.73940 | 8.36933 | 8829 ft | 260 kts | 275° |
| 2026-05-06 16:54 | 47.73847 | 8.34369 | 8453 ft | 242 kts | 250° |
| 2026-05-06 16:55 | 47.73075 | 8.32241 | 8093 ft | 230 kts | 228° |
| 2026-05-06 16:55 | 47.71997 | 8.30537 | 7817 ft | 225 kts | 227° |
| 2026-05-06 16:55 | 47.70808 | 8.29040 | 7452 ft | 226 kts | 212° |
| 2026-05-06 16:55 | 47.69327 | 8.28192 | 6853 ft | 232 kts | 192° |
| 2026-05-06 16:56 | 47.67720 | 8.28208 | 6504 ft | 233 kts | 172° |
| 2026-05-06 16:56 | 47.66197 | 8.29078 | 6227 ft | 238 kts | 152° |
| 2026-05-06 16:56 | 47.64910 | 8.30658 | 5918 ft | 242 kts | 141° |
| 2026-05-06 16:56 | 47.63678 | 8.32368 | 5596 ft | 243 kts | 141° |
| 2026-05-06 16:57 | 47.62456 | 8.34060 | 5274 ft | 244 kts | 141° |
| 2026-05-06 16:57 | 47.61213 | 8.35771 | 4944 ft | 244 kts | 141° |
| 2026-05-06 16:57 | 47.59966 | 8.37487 | 4617 ft | 244 kts | 141° |
| 2026-05-06 16:57 | 47.58718 | 8.39202 | 4284 ft | 246 kts | 141° |
| 2026-05-06 16:58 | 47.57485 | 8.40898 | 3953 ft | 236 kts | 141° |
| 2026-05-06 16:58 | 47.56313 | 8.42510 | 3646 ft | 224 kts | 140° |
| 2026-05-06 16:58 | 47.55198 | 8.44040 | 3348 ft | 211 kts | 140° |
| 2026-05-06 16:58 | 47.54181 | 8.45435 | 3112 ft | 189 kts | 140° |
| 2026-05-06 16:59 | 47.53278 | 8.46673 | 2859 ft | 166 kts | 140° |
| 2026-05-06 16:59 | 47.52465 | 8.47785 | 2619 ft | 153 kts | 141° |
| 2026-05-06 16:59 | 47.51713 | 8.48817 | 2376 ft | 143 kts | 140° |
| 2026-05-06 16:59 | 47.51007 | 8.49799 | 2111 ft | 136 kts | 141° |
| 2026-05-06 17:00 | 47.50336 | 8.50727 | 1870 ft | 129 kts | 142° |
| 2026-05-06 17:00 | 47.49650 | 8.51655 | 1736 ft | 138 kts | 142° |
| 2026-05-06 17:00 | 47.48928 | 8.52648 | 1647 ft | 143 kts | 140° |
| 2026-05-06 17:00 | 47.48215 | 8.53621 | 1462 ft | 136 kts | 141° |
| 2026-05-06 17:01 | 47.47569 | 8.54465 | 1394 ft | 103 kts | 139° |
| 2026-05-06 17:01 | 47.47167 | 8.55012 | 1384 ft | 54 kts | 137° |
| 2026-05-06 17:01 | 47.46901 | 8.55382 | 1396 ft | 53 kts | 137° |
| 2026-05-06 17:01 | 47.46645 | 8.55659 | 1398 ft | 39 kts | 161° |
| 2026-05-06 17:02 | 47.46448 | 8.55728 | 1405 ft | 18 kts | 168° |
| 2026-05-06 17:02 | 47.46348 | 8.55804 | 1405 ft | 20 kts | 135° |
| 2026-05-06 17:02 | 47.46239 | 8.55952 | 1407 ft | 21 kts | 136° |
| 2026-05-06 17:02 | 47.46133 | 8.55995 | 1407 ft | 16 kts | 186° |
| 2026-05-06 17:03 | 47.46018 | 8.55979 | 1406 ft | 17 kts | 185° |
| 2026-05-06 17:03 | 47.45898 | 8.55932 | 1411 ft | 18 kts | 201° |
| 2026-05-06 17:03 | 47.45785 | 8.55876 | 1409 ft | 17 kts | 188° |
| 2026-05-06 17:03 | 47.45658 | 8.55860 | 1408 ft | 19 kts | 184° |
| 2026-05-06 17:04 | 47.45530 | 8.55841 | 1408 ft | 15 kts | 175° |
| 2026-05-06 17:04 | 47.45444 | 8.55876 | 1407 ft | 11 kts | 186° |
| 2026-05-06 17:04 | 47.45429 | 8.55874 | 1407 ft | 1 kts | 186° |
| 2026-05-06 17:04 | 47.45421 | 8.55873 | 1407 ft | 2 kts | 186° |
| 2026-05-06 17:05 | 47.45418 | 8.55872 | 1407 ft | 0 kts | 186° |